createdAt,value
2023-04-18T00:15:09.440Z,2707.7157190635453
2023-04-18T00:21:29.702Z,2667.170568561873
2023-04-18T00:27:50.568Z,2684.066889632107
2023-04-18T00:34:10.295Z,2614.57525083612
2023-04-18T00:45:21.926Z,2702.849498327759
2023-04-18T00:51:41.964Z,2553.1404682274247
2023-04-18T01:00:36.638Z,2146.6454849498327
2023-04-18T01:11:51.611Z,1800.8327759197325
2023-04-18T01:20:09.519Z,1624.6053511705686
2023-04-18T01:26:28.940Z,1579.2742474916388
2023-04-18T01:32:51.940Z,1714.0836120401339
2023-04-18T01:39:10.585Z,1954.4347826086957
2023-04-18T01:50:09.962Z,2471.3377926421404
2023-04-18T01:58:05.249Z,2500.0033444816054
2023-04-18T02:04:24.268Z,2667.5317725752507
2023-04-18T02:10:44.807Z,2653.725752508361
2023-04-18T02:32:17.853Z,3014.327759197324
2023-04-18T02:38:38.164Z,3083.6889632107022
2023-04-18T02:48:11.312Z,3322.52508361204
2023-04-18T02:56:51.926Z,3490.2541806020067
2023-04-18T03:04:58.934Z,3509.9297658862874
2023-04-18T03:17:10.701Z,3624.38127090301
2023-04-18T03:23:29.915Z,3619.7157190635453
2023-04-18T03:34:13.272Z,3814.0434782608695
2023-04-18T03:48:32.707Z,4344.020066889632
2023-04-18T03:55:02.954Z,4421.397993311037
2023-04-18T04:04:22.039Z,4532.749163879599
2023-04-18T04:18:42.951Z,4755.632107023412
2023-04-18T04:25:03.194Z,4910.076923076923
2023-04-18T04:31:24.309Z,4983.963210702341
2023-04-18T04:37:46.495Z,5071.785953177257
2023-04-18T04:44:09.740Z,5049.180602006689
2023-04-18T04:50:36.706Z,5026.996655518395
2023-04-18T05:06:30.903Z,4750.866220735786
2023-04-18T05:15:58.563Z,4689.71237458194
2023-04-18T05:23:12.977Z,4666.133779264214
2023-04-18T05:29:35.694Z,4608.672240802675
2023-04-18T05:36:00.633Z,4612.665551839465
2023-04-18T05:42:23.325Z,4653.933110367893
2023-04-18T05:48:45.035Z,4595.759197324414
2023-04-18T05:55:07.195Z,4555.57525083612
2023-04-18T06:12:22.786Z,4429.725752508361
2023-04-18T06:18:48.050Z,4415.086956521739
2023-04-18T06:25:32.518Z,4409.8394648829435
2023-04-18T06:31:58.842Z,4304.157190635451
2023-04-18T06:40:59.906Z,3858.180602006689
2023-04-18T06:47:23.475Z,3812.9498327759197
2023-04-18T06:55:12.021Z,3681.953177257525
2023-04-18T07:05:41.083Z,3554.5585284280937
2023-04-18T07:12:02.516Z,3497.7391304347825
2023-04-18T07:19:01.977Z,3512.418060200669
2023-04-18T07:28:09.582Z,3436.545150501672
2023-04-18T07:37:36.155Z,3283.454849498328
2023-04-18T07:43:57.556Z,3244.6053511705686
2023-04-18T07:50:18.845Z,3069.8227424749166
2023-04-18T07:56:41.658Z,2753.598662207358
2023-04-18T08:03:04.017Z,2407.494983277592
2023-04-18T08:09:25.388Z,2478.2207357859534
2023-04-18T08:15:47.129Z,2396.1371237458193
2023-04-18T08:25:05.736Z,2431.5953177257525
2023-04-18T08:33:14.261Z,2610.632107023411
2023-04-18T08:39:35.567Z,2664.030100334448
2023-04-18T08:45:56.999Z,2516.438127090301
2023-04-18T08:52:16.912Z,2316.3110367892978
2023-04-18T08:58:37.169Z,1951.4147157190635
2023-04-18T09:04:58.001Z,1703.036789297659
2023-04-18T09:11:18.529Z,1695.0401337792641
2023-04-18T09:17:38.764Z,1645.4648829431437
2023-04-18T09:23:59.275Z,1444.8461538461538
2023-04-18T09:30:19.964Z,1250.8996655518395
2023-04-18T09:36:40.115Z,1124.5183946488294
2023-04-18T09:48:22.478Z,801.4113712374582
2023-04-18T09:54:43.358Z,811.6755852842809
2023-04-18T10:01:04.233Z,842.4983277591973
2023-04-18T10:13:43.695Z,789.0802675585285
2023-04-18T10:20:04.585Z,853.304347826087
2023-04-18T10:26:24.181Z,944.0066889632106
2023-04-18T10:32:44.233Z,1116.7926421404682
2023-04-18T10:42:39.642Z,1290.9732441471572
2023-04-18T10:48:59.659Z,1409.9698996655518
2023-04-18T10:55:19.018Z,1550.819397993311
2023-04-18T11:01:38.932Z,1663.6454849498327
2023-04-18T11:07:59.163Z,1785.1003344481605
2023-04-18T11:18:48.437Z,1907.3177257525083
2023-04-18T11:28:50.221Z,1892.0869565217392
2023-04-18T11:35:10.224Z,1916.5986622073578
2023-04-18T11:41:30.099Z,2016.1304347826087
2023-04-18T11:47:52.491Z,1870.3846153846155
2023-04-18T11:54:13.687Z,1899.732441471572
2023-04-18T12:00:34.257Z,1889.608695652174
2023-04-18T12:06:54.612Z,1763.5986622073578
2023-04-18T12:13:14.894Z,1507.4347826086957
2023-04-18T12:19:35.111Z,1469.066889632107
2023-04-18T12:35:53.865Z,1224.772575250836
2023-04-18T12:42:13.928Z,1246.9264214046823
2023-04-18T12:48:33.396Z,1142.6889632107022
2023-04-18T12:54:54.758Z,1212.0301003344482
2023-04-18T13:01:15.088Z,1095.4214046822742
2023-04-18T13:07:35.407Z,1100.428093645485
2023-04-18T13:13:55.914Z,1139.5484949832776
2023-04-18T13:20:15.673Z,1185.0602006688964
2023-04-18T13:26:35.758Z,1081.304347826087
2023-04-18T13:34:54.056Z,1095.391304347826
2023-04-18T13:41:13.959Z,1093.3846153846155
2023-04-18T13:47:33.702Z,1022.1170568561873
2023-04-18T13:53:53.936Z,1106.1270903010034
2023-04-18T14:00:13.907Z,1126.1739130434783
2023-04-18T14:08:12.941Z,1194.1003344481605
2023-04-18T14:14:33.993Z,1193.0969899665552
2023-04-18T14:20:55.080Z,1251.1404682274247
2023-04-18T14:27:15.896Z,1215.4214046822742
2023-04-18T14:34:38.900Z,1294.8662207357859
2023-04-18T14:44:47.665Z,1240.1839464882944
2023-04-18T14:51:10.162Z,1249.494983277592
2023-04-18T14:57:34.008Z,1346.0969899665552
2023-04-18T15:09:36.433Z,1365.953177257525
2023-04-18T15:15:58.034Z,1431.76254180602
2023-04-18T15:30:51.457Z,1449.0602006688964
2023-04-18T15:37:15.053Z,1439.3678929765886
2023-04-18T15:43:37.491Z,1429.0635451505016
2023-04-18T15:49:59.855Z,1492.6655518394648
2023-04-18T15:56:22.073Z,1539.1705685618729
2023-04-18T16:02:45.282Z,1673.8595317725753
2023-04-18T16:09:08.573Z,1643.046822742475
2023-04-18T16:15:31.973Z,1654.494983277592
2023-04-18T16:21:55.177Z,1892.1371237458195
2023-04-18T16:29:22.430Z,1909.9966555183946
2023-04-18T16:35:45.024Z,2041.715719063545
2023-04-18T16:42:07.485Z,2017.5852842809365
2023-04-18T16:48:29.172Z,2065.515050167224
2023-04-18T16:54:52.576Z,2199.8929765886287
2023-04-18T17:01:14.640Z,2271.0602006688964
2023-04-18T17:07:36.779Z,2416.3846153846152
2023-04-18T17:14:15.193Z,2495.076923076923
2023-04-18T17:24:44.706Z,2616.943143812709
2023-04-18T17:33:35.822Z,2765.1471571906354
2023-04-18T17:39:58.658Z,2781.7725752508363
2023-04-18T17:46:21.458Z,2818.3846153846152
2023-04-18T17:52:47.117Z,2759.086956521739
2023-04-18T18:00:48.013Z,2804.8896321070233
2023-04-18T18:07:53.659Z,2863.113712374582
2023-04-18T18:15:08.995Z,2823.170568561873
2023-04-18T18:30:29.826Z,2661.6220735785955
2023-04-18T18:36:56.754Z,2588.5785953177256
2023-04-18T18:47:57.438Z,2518.0434782608695
2023-04-18T18:54:19.627Z,2554.936454849498
2023-04-18T19:00:44.556Z,2470.454849498328
2023-04-18T19:07:09.557Z,2519.448160535117
2023-04-18T19:24:40.589Z,2575.725752508361
2023-04-18T19:37:02.538Z,2482.334448160535
2023-04-18T19:43:52.227Z,2423.9799331103677
2023-04-18T19:50:19.171Z,2339.0066889632108
2023-04-18T19:56:53.696Z,2285.277591973244
2023-04-18T20:05:14.272Z,2257.0434782608695
2023-04-18T20:11:39.512Z,2164.9464882943143
2023-04-18T20:18:05.307Z,2173.7157190635453
2023-04-18T20:24:36.581Z,2103.0
2023-04-18T20:30:58.106Z,2124.6220735785955
2023-04-18T20:37:22.547Z,2100.5719063545152
2023-04-18T20:47:39.906Z,2073.722408026756
2023-04-18T20:57:42.037Z,2084.5083612040135
2023-04-18T21:04:03.769Z,2069.9799331103677
2023-04-18T21:14:05.343Z,2031.0802675585285
2023-04-18T21:23:29.129Z,2086.0033444816054
2023-04-18T21:29:49.663Z,1960.695652173913
2023-04-18T21:37:35.592Z,2070.4916387959865
2023-04-18T21:48:04.747Z,2026.8862876254182
2023-04-18T21:54:24.830Z,2042.23745819398
2023-04-18T22:00:45.008Z,2028.0100334448161
2023-04-18T22:07:05.515Z,1982.8996655518395
2023-04-18T22:16:07.844Z,2043.38127090301
2023-04-18T22:22:28.410Z,2025.2809364548496
2023-04-18T22:34:18.237Z,2067.6923076923076
2023-04-18T22:40:37.978Z,2039.1471571906354
2023-04-18T22:46:57.704Z,2047.6454849498327
2023-04-18T22:57:29.399Z,2035.5652173913043
2023-04-18T23:03:49.470Z,2011.314381270903
2023-04-18T23:11:00.665Z,1953.2809364548496
2023-04-18T23:17:21.045Z,1970.9297658862877
2023-04-18T23:23:41.327Z,1927.85618729097
2023-04-18T23:30:02.699Z,1809.923076923077
2023-04-18T23:36:40.985Z,1849.4147157190635
2023-04-18T23:43:00.318Z,1772.5083612040135
2023-04-18T23:54:54.892Z,1617.8528428093646
